Mckinley Sea — WDE5024 — position and weather

sailwx.info

Track history (hours):
 
Tides and Currents Weather Stations Pressure Air Temp Water Temp Dewpoint Dewpoint Depression Visibility Wind Speed Wind Dir Waves Ship Positions

Mckinley Sea

Owner: Kirby Offshore Marine, LLC, Staten Island, NY. More information available from US FCC via Universal Licensing System and Coast Guard Vessel Documentation Center.

Last reported at 2016-Sep-24 00:33 UTC. Time now 2016-Sep-26 05:25 UTC.
Position N 40°30' W 074°08'.

Length 41 m; draft 6 m.

Type: . MMSI: 367360980.

Date/timePositionNaut miles runAvg speedWind from/ knotsBaromVisibWave heightAir tempDewpointWater temp
2016-Sep-24 00:33N 40°30' W 074°08'9 1.8
2016-Sep-23 19:32N 40°39' W 074°07'0 0.0
2016-Sep-23 17:32N 40°39' W 074°07'0 0.0
2016-Sep-23 16:32N 40°39' W 074°07'0 0.0
2016-Sep-23 15:32N 40°39' W 074°07'0 0.0
2016-Sep-23 13:32N 40°39' W 074°07'0 0.0
2016-Sep-23 09:32N 40°39' W 074°07'0 0.0
2016-Sep-23 06:29N 40°39' W 074°07'0 0.0
2016-Sep-23 04:29N 40°39' W 074°07'0 0.0
2016-Sep-23 03:32N 40°39' W 074°07'0 0.0
2016-Sep-23 02:32N 40°39' W 074°07'0 0.0
2016-Sep-23 01:32N 40°39' W 074°07'0 0.1
2016-Sep-23 00:33N 40°39' W 074°07'1 0.6
2016-Sep-22 23:33N 40°39' W 074°06'2 0.6
2016-Sep-22 20:33N 40°40' W 074°04'3 0.4
2016-Sep-22 12:33N 40°36' W 074°03'3 0.3
2016-Sep-22 04:32N 40°39' W 074°03'0 0.0
2016-Sep-22 03:32N 40°39' W 074°03'5 1.8
2016-Sep-22 00:33N 40°39' W 074°10'0 0.0
2016-Sep-21 23:32N 40°39' W 074°10'0 0.0
2016-Sep-21 22:33N 40°39' W 074°10'0 0.1
2016-Sep-21 19:33N 40°38' W 074°10'9 3.1
2016-Sep-21 16:33N 40°42' W 073°58'5 0.7
2016-Sep-21 09:33N 40°39' W 074°03'0 0.2
2016-Sep-21 08:33N 40°39' W 074°03'5 1.8
2016-Sep-21 05:33N 40°43' W 073°58'8 4.2
2016-Sep-21 03:33N 40°48' W 073°50'6 0.1
2016-Sep-19 09:34N 40°46' W 073°57'8 4.1
2016-Sep-19 07:33N 40°39' W 074°03'6 6.3
2016-Sep-19 06:32N 40°38' W 074°12'12 0.4
2016-Sep-18 02:33N 40°45' W 073°58'5 5.3
2016-Sep-18 01:32N 40°48' W 073°52'12 0.3
2016-Sep-16 12:33N 40°39' W 074°03'0 0.0
2016-Sep-16 09:33N 40°39' W 074°03'0 0.2
2016-Sep-16 07:33N 40°39' W 074°03'5 0.3
2016-Sep-15 12:33N 40°38' W 074°10'0 0.0
2016-Sep-15 11:32N 40°38' W 074°10'9 0.6
2016-Sep-14 21:30N 40°30' W 074°09'22 5.6
2016-Sep-14 17:32N 40°48' W 073°52'  
Track history (hours):
 
Tides and Currents Weather Stations Pressure Air Temp Water Temp Dewpoint Dewpoint Depression Visibility Wind Speed Wind Dir Waves Ship Positions

Mckinley Sea

Owner: Kirby Offshore Marine, LLC, Staten Island, NY. More information available from US FCC via Universal Licensing System and Coast Guard Vessel Documentation Center.

Last reported at 2016-Sep-24 00:33 UTC. Time now 2016-Sep-26 05:25 UTC.
Position N 40°30' W 074°08'.

Length 41 m; draft 6 m.

Type: . MMSI: 367360980.

Date/timePositionNaut miles runAvg speedWind from/ knotsBaromVisibWave heightAir tempDewpointWater temp
2016-Sep-24 00:33N 40°30' W 074°08'9 1.8
2016-Sep-23 19:32N 40°39' W 074°07'0 0.0
2016-Sep-23 17:32N 40°39' W 074°07'0 0.0
2016-Sep-23 16:32N 40°39' W 074°07'0 0.0
2016-Sep-23 15:32N 40°39' W 074°07'0 0.0
2016-Sep-23 13:32N 40°39' W 074°07'0 0.0
2016-Sep-23 09:32N 40°39' W 074°07'0 0.0
2016-Sep-23 06:29N 40°39' W 074°07'0 0.0
2016-Sep-23 04:29N 40°39' W 074°07'0 0.0
2016-Sep-23 03:32N 40°39' W 074°07'0 0.0
2016-Sep-23 02:32N 40°39' W 074°07'0 0.0
2016-Sep-23 01:32N 40°39' W 074°07'0 0.1
2016-Sep-23 00:33N 40°39' W 074°07'1 0.6
2016-Sep-22 23:33N 40°39' W 074°06'2 0.6
2016-Sep-22 20:33N 40°40' W 074°04'3 0.4
2016-Sep-22 12:33N 40°36' W 074°03'3 0.3
2016-Sep-22 04:32N 40°39' W 074°03'0 0.0
2016-Sep-22 03:32N 40°39' W 074°03'5 1.8
2016-Sep-22 00:33N 40°39' W 074°10'0 0.0
2016-Sep-21 23:32N 40°39' W 074°10'0 0.0
2016-Sep-21 22:33N 40°39' W 074°10'0 0.1
2016-Sep-21 19:33N 40°38' W 074°10'9 3.1
2016-Sep-21 16:33N 40°42' W 073°58'5 0.7
2016-Sep-21 09:33N 40°39' W 074°03'0 0.2
2016-Sep-21 08:33N 40°39' W 074°03'5 1.8
2016-Sep-21 05:33N 40°43' W 073°58'8 4.2
2016-Sep-21 03:33N 40°48' W 073°50'6 0.1
2016-Sep-19 09:34N 40°46' W 073°57'8 4.1
2016-Sep-19 07:33N 40°39' W 074°03'6 6.3
2016-Sep-19 06:32N 40°38' W 074°12'12 0.4
2016-Sep-18 02:33N 40°45' W 073°58'5 5.3
2016-Sep-18 01:32N 40°48' W 073°52'12 0.3
2016-Sep-16 12:33N 40°39' W 074°03'0 0.0
2016-Sep-16 09:33N 40°39' W 074°03'0 0.2
2016-Sep-16 07:33N 40°39' W 074°03'5 0.3
2016-Sep-15 12:33N 40°38' W 074°10'0 0.0
2016-Sep-15 11:32N 40°38' W 074°10'9 0.6
2016-Sep-14 21:30N 40°30' W 074°09'22 5.6
2016-Sep-14 17:32N 40°48' W 073°52'  

Dump ship's entire track history